עמוד ראשי
METAR-TAF:

METAR-TAF

שדות תעופה :

נמל התעופה חיפה

חיפה, ישראל

קו רוחב: 32-48N, קו אורך: 035-02E, גובה: 8מטר

תצפית מזג אוויר נוכחית

הדו"ח נערך לפני 3 שעות ו 29דקות, בשעה 15:50 UTC
רוח 7קשר מכיוון צפון
טמפרטורת 28 צלסיוס
לחות 84%
לחץ 1009 hPa
ראות 10 קילומטר או יותר
עננים פזורים בגובה 2000רגל

METAR: LLHA 131550Z 35007KT 9999 SCT020 28/25 Q1009

זמן: 22:19 (19:19 UTC)

תחזית

הדו"ח נערך לפני 2 שעות ו 16דקות, בשעה 17:03 UTC
תחזית בתוקף מ 13 ב 18 UTC עד 14 ב 18 UTC
רוח 4קשר עם כיוונים משתנים
ראות 10 קילומטר או יותר
ללא עננים שבסיסם נמוך מ 5000 רגל או קומולונימבוס
הסתברות 30% :
זמנית מ -
14 ב 00 UTC עד 14 ב 05 UTC
ראות: 4000מטר
עננים פזורים בגובה 400רגל
אד
יעשה מ
14 ב 07 UTC עד 14 ב 09 UTC
רוח 10קשר מכיוון צפון-מערב
יעשה מ
14 ב 15 UTC עד 14 ב 17 UTC
רוח 4קשר עם כיוונים משתנים

TAF: LLHA 131703Z 1318/1418 VRB04KT CAVOK PROB30 TEMPO 1400/1405 4000 BR SCT004 BECMG 1407/1409 32010KT BECMG 1415/1417 VRB04KT TX30/1411Z TN26/1403Z

תצפיות ותחזיות מזג אוויר לגבי יותר מ- 4,000 שדות תעופה ברחבי העולם. דוחות METAR ו- TAF.

התחנות הזמינות מסומנות בנקודות צהובות ואדומות על גבי המפה.

העבר את העכבר לנקודה הצבעונית על מנת לראות את שם התחנה.

לאחר מכן, לחץ כדי לראות את תוכן ואת תחזיות מזג האוויר.

כדי לשנות את המפה: לחץ על הכפתורים הירוקים עם הפלוס השחור כדי להתקרב; על הכפתור הירוק עם המקף כדי להתרחק; או בחיצים הירוקים למפות סמוכות.


METAR-TAF: